Terminal Aerodrome Forecast
Issued by NWS Shreveport, LA

Home | Current Version | Previous Version | Text Only | Print | Product List | Glossary On
Versions: 1 2 3 4 5 6 7 8 9 10 11 12 13 14 15 16 17 18 19 20 21 22 23 24 25
000
FTUS44 KSHV 032300
TAFSHV
TAF
KSHV 032333Z 0400/0424 13006KT P6SM SCT025 BKN060
      TEMPO 0400/0404 BKN020 OVC040
     FM040600 17006KT P6SM OVC015
     FM040900 18005KT 4SM BR OVC004
      TEMPO 0411/0415 2SM BR OVC001
     FM041600 21006KT P6SM VCTS OVC010CB
      TEMPO 0418/0422 3SM TSRA BR BKN020CB
     FM042200 01015G25KT P6SM -RA OVC005=

USA.gov is the U.S. government's official web portal to all federal, state and local government web resources and services.